Time;durP1;ratioP1;P1;durP2;ratioP2;P2;SDS_P1;SDS_P2;PMS_P1;PMS_P2;Temp;Humidity;BMP_temperature;BMP_pressure;BME280_temperature;BME280_humidity;BME280_pressure;Samples;Min_cycle;Max_cycle;Signal;HPM_P1;HPM_P2
2022/02/04 00:20:08;;;;;;;27.33;10.23;;;6.70;99.90;;;;;;5034484;28;19905;-73
2022/02/04 00:23:44;;;;;;;33.65;11.10;;;6.70;99.90;;;;;;5086959;28;20086;-72
2022/02/04 00:31:26;;;;;;;26.20;10.02;;;6.90;99.90;;;;;;5086624;28;20033;-74
2022/02/04 00:33:57;;;;;;;37.22;12.52;;;6.80;99.90;;;;;;5086436;28;20404;-72
2022/02/04 00:36:30;;;;;;;32.60;11.13;;;6.80;99.90;;;;;;5066030;28;20050;-74
2022/02/04 00:38:58;;;;;;;24.67;8.95;;;6.80;99.90;;;;;;5066560;28;20382;-75
2022/02/04 00:41:28;;;;;;;32.22;10.43;;;6.80;99.90;;;;;;5072317;28;20433;-72
2022/02/04 00:43:56;;;;;;;24.15;8.82;;;6.80;99.90;;;;;;5066495;28;20866;-72
2022/02/04 00:46:38;;;;;;;25.88;11.45;;;6.80;99.90;;;;;;5048517;28;20394;-75
2022/02/04 00:49:14;;;;;;;32.33;10.60;;;6.90;99.90;;;;;;5066460;28;20021;-74
2022/02/04 00:52:04;;;;;;;26.92;9.60;;;6.90;99.90;;;;;;5073248;28;20090;-73
2022/02/04 00:54:49;;;;;;;27.80;11.45;;;6.90;99.90;;;;;;5082358;28;20616;-74
2022/02/04 00:57:36;;;;;;;23.35;9.65;;;6.90;99.90;;;;;;5085710;28;20036;-71
2022/02/04 01:27:21;;;;;;;32.97;11.68;;;6.90;99.90;;;;;;5085916;28;20438;-72
2022/02/04 01:30:26;;;;;;;28.85;11.25;;;6.90;99.90;;;;;;5085474;28;20048;-73
2022/02/04 01:32:39;;;;;;;25.80;11.77;;;6.90;99.90;;;;;;5083176;28;20036;-72
2022/02/04 01:35:05;;;;;;;24.80;9.73;;;6.90;99.90;;;;;;5085346;28;20044;-71
2022/02/04 01:37:30;;;;;;;30.63;11.25;;;7.00;99.90;;;;;;5085187;28;20021;-71
2022/02/04 01:39:59;;;;;;;33.88;12.52;;;6.90;99.90;;;;;;5063801;28;20037;-74
2022/02/04 01:42:25;;;;;;;27.27;10.70;;;6.90;99.90;;;;;;5065210;28;20044;-73
2022/02/04 01:44:51;;;;;;;35.15;10.52;;;7.00;99.90;;;;;;5065106;28;20025;-75
2022/02/04 01:47:17;;;;;;;25.77;11.10;;;6.90;99.90;;;;;;5064723;28;20091;-73
2022/02/04 01:49:43;;;;;;;29.15;10.30;;;7.00;99.90;;;;;;5076989;28;20515;-73
2022/02/04 01:52:10;;;;;;;26.35;10.18;;;6.90;99.90;;;;;;5065351;28;20039;-74
2022/02/04 01:54:36;;;;;;;34.70;11.73;;;7.00;99.90;;;;;;5057957;28;20569;-72
2022/02/04 01:57:02;;;;;;;32.67;12.57;;;7.00;99.90;;;;;;5065204;28;20071;-71
2022/02/04 01:59:28;;;;;;;25.67;10.70;;;7.00;99.90;;;;;;5065130;28;20036;-73
2022/02/04 02:01:53;;;;;;;28.50;12.20;;;7.00;99.90;;;;;;5065100;28;20029;-73
2022/02/04 02:04:19;;;;;;;23.38;10.38;;;6.90;99.90;;;;;;5064893;28;20021;-72
2022/02/04 02:06:59;;;;;;;23.05;9.80;;;7.00;99.90;;;;;;5064777;28;20033;-71
2022/02/04 02:09:31;;;;;;;29.17;10.25;;;7.00;99.90;;;;;;5063968;28;20036;-73
2022/02/04 02:12:01;;;;;;;29.63;11.32;;;7.00;99.90;;;;;;5064973;28;20059;-72
2022/02/04 02:14:29;;;;;;;26.77;11.68;;;7.00;99.90;;;;;;5064859;28;20045;-73
2022/02/04 02:43:52;;;;;;;34.03;12.07;;;6.90;99.90;;;;;;5068592;28;20028;-72
2022/02/04 02:49:44;;;;;;;42.10;12.55;;;6.90;99.90;;;;;;5068318;28;20032;-73
2022/02/04 02:52:04;;;;;;;31.55;11.57;;;6.90;99.90;;;;;;5068487;28;20668;-70
2022/02/04 03:00:00;;;;;;;35.83;13.85;;;6.90;99.90;;;;;;5088093;28;20039;-74
2022/02/04 03:02:26;;;;;;;33.55;11.25;;;6.90;99.90;;;;;;5087571;28;20830;-73
2022/02/04 03:04:52;;;;;;;36.92;12.73;;;6.90;99.90;;;;;;5088273;28;20038;-72
2022/02/04 03:07:18;;;;;;;35.05;11.32;;;6.90;99.90;;;;;;5087963;28;20504;-72
2022/02/04 03:09:43;;;;;;;31.45;11.48;;;6.90;99.90;;;;;;5087735;28;20021;-70
2022/02/04 03:12:09;;;;;;;34.05;11.98;;;6.90;99.90;;;;;;5076267;28;20091;-72
2022/02/04 03:14:35;;;;;;;41.33;12.98;;;6.90;99.90;;;;;;5069978;28;20044;-72
2022/02/04 03:17:02;;;;;;;27.38;10.38;;;6.90;99.90;;;;;;5087596;28;20033;-74
2022/02/04 03:19:29;;;;;;;36.55;11.65;;;6.90;99.90;;;;;;5085446;28;20096;-73
2022/02/04 03:22:02;;;;;;;28.73;11.60;;;6.90;99.90;;;;;;5088202;28;20078;-73
2022/02/04 03:24:29;;;;;;;29.20;12.60;;;6.90;99.90;;;;;;5088103;28;20025;-74
2022/02/04 03:26:59;;;;;;;33.35;12.57;;;6.90;99.90;;;;;;5088035;28;20025;-72
2022/02/04 03:29:29;;;;;;;26.75;11.38;;;6.90;99.90;;;;;;5084494;28;20025;-74
2022/02/04 03:32:01;;;;;;;40.90;12.07;;;6.80;99.90;;;;;;5069295;28;20050;-72
2022/02/04 03:34:27;;;;;;;35.33;10.80;;;6.90;99.90;;;;;;5068064;28;20021;-71
2022/02/04 03:36:53;;;;;;;28.55;11.18;;;6.90;99.90;;;;;;5067887;28;20037;-73
2022/02/04 03:39:18;;;;;;;39.95;11.90;;;6.90;99.90;;;;;;5049627;28;20027;-73
2022/02/04 03:41:44;;;;;;;38.92;11.85;;;6.90;99.90;;;;;;5049655;28;20027;-71
2022/02/04 03:44:09;;;;;;;26.95;10.52;;;6.90;99.90;;;;;;5067569;28;20366;-71
2022/02/04 03:46:35;;;;;;;29.48;11.10;;;6.90;99.90;;;;;;5067354;28;20031;-72
2022/02/04 03:49:01;;;;;;;24.67;9.93;;;6.90;99.90;;;;;;5067471;28;20036;-72
2022/02/04 03:51:27;;;;;;;31.85;11.98;;;6.90;99.90;;;;;;5072414;28;20028;-72
2022/02/04 03:53:52;;;;;;;26.98;10.63;;;6.90;99.90;;;;;;5086692;28;20067;-72
2022/02/04 03:56:19;;;;;;;36.75;12.73;;;6.90;99.90;;;;;;5086959;28;20063;-72
2022/02/04 03:58:45;;;;;;;27.27;10.73;;;6.90;99.90;;;;;;5086941;28;20028;-72
2022/02/04 04:01:10;;;;;;;31.95;11.60;;;6.90;99.90;;;;;;5087136;28;20029;-71
2022/02/04 04:03:36;;;;;;;32.08;11.43;;;6.90;99.90;;;;;;5087345;28;20080;-71
2022/02/04 04:06:02;;;;;;;34.55;10.95;;;6.90;99.90;;;;;;5087425;28;20035;-71
2022/02/04 04:08:27;;;;;;;28.60;10.98;;;6.90;99.90;;;;;;5087238;28;20028;-71
2022/02/04 04:10:53;;;;;;;45.80;12.38;;;6.90;99.90;;;;;;5087312;28;20047;-73
2022/02/04 04:13:20;;;;;;;31.67;10.48;;;6.80;99.90;;;;;;5086991;28;20515;-73
2022/02/04 04:15:46;;;;;;;23.77;10.02;;;6.80;99.90;;;;;;5086627;28;20028;-71
2022/02/04 04:18:12;;;;;;;26.02;10.73;;;6.80;99.90;;;;;;5069025;28;20021;-71
2022/02/04 04:20:40;;;;;;;33.53;10.68;;;6.80;99.90;;;;;;5086516;28;20074;-72
2022/02/04 04:23:05;;;;;;;28.20;10.88;;;6.80;99.90;;;;;;5085720;28;20051;-73
2022/02/04 04:25:31;;;;;;;33.80;10.55;;;6.80;99.90;;;;;;5086709;28;20029;-72
2022/02/04 04:27:57;;;;;;;25.55;9.45;;;6.80;99.90;;;;;;5086965;28;20089;-70
2022/02/04 04:30:24;;;;;;;29.73;12.15;;;6.80;99.90;;;;;;5086776;28;20065;-71
2022/02/04 04:32:52;;;;;;;38.67;13.65;;;6.80;99.90;;;;;;5086789;28;20025;-70
2022/02/04 04:35:19;;;;;;;25.90;10.98;;;6.80;99.90;;;;;;5086651;28;20091;-71
2022/02/04 04:43:00;;;;;;;32.47;11.60;;;6.80;99.90;;;;;;5086554;28;20051;-71
2022/02/04 05:29:16;;;;;;;26.48;10.98;;;6.80;99.90;;;;;;5085629;28;20029;-71
2022/02/04 05:31:42;;;;;;;30.65;10.55;;;6.80;99.90;;;;;;5085216;28;20025;-72
2022/02/04 05:34:09;;;;;;;33.97;11.05;;;6.80;99.90;;;;;;5085313;28;20020;-71
2022/02/04 05:36:39;;;;;;;27.58;9.82;;;6.80;99.90;;;;;;5085241;28;20036;-73
2022/02/04 05:39:05;;;;;;;31.83;10.73;;;6.90;99.90;;;;;;5067446;28;20024;-71
2022/02/04 05:41:34;;;;;;;31.63;11.48;;;6.90;99.90;;;;;;5085557;28;20050;-71
2022/02/04 05:44:08;;;;;;;37.42;11.27;;;6.90;99.90;;;;;;5085470;28;20021;-72
2022/02/04 05:46:40;;;;;;;34.67;10.63;;;7.00;99.90;;;;;;5085194;28;20036;-72
2022/02/04 05:49:06;;;;;;;21.33;7.65;;;7.00;99.90;;;;;;5085450;28;20060;-73
2022/02/04 05:59:13;;;;;;;20.75;8.40;;;7.10;99.90;;;;;;5085268;28;20436;-71
2022/02/04 06:04:43;;;;;;;37.40;12.40;;;7.10;99.90;;;;;;5068516;28;20043;-72
2022/02/04 06:23:16;;;;;;;32.67;12.43;;;7.10;99.90;;;;;;5077996;28;20047;-72
2022/02/04 06:25:44;;;;;;;41.25;13.73;;;7.20;99.90;;;;;;5084698;28;20052;-74
2022/02/04 06:28:09;;;;;;;33.67;13.77;;;7.10;99.90;;;;;;5084856;28;20025;-71
2022/02/04 06:30:36;;;;;;;45.45;15.05;;;7.10;99.90;;;;;;5074413;28;20377;-71
2022/02/04 06:33:02;;;;;;;27.70;12.18;;;7.20;99.90;;;;;;5064517;28;20025;-72
2022/02/04 06:35:30;;;;;;;35.25;13.05;;;7.20;99.90;;;;;;5064439;28;20039;-70
2022/02/04 06:37:57;;;;;;;29.58;12.23;;;7.20;99.90;;;;;;5078917;28;20046;-73
2022/02/04 06:40:23;;;;;;;30.17;11.30;;;7.20;99.90;;;;;;5084706;28;20025;-69
2022/02/04 06:42:48;;;;;;;32.85;11.90;;;7.20;99.90;;;;;;5084240;28;20107;-72
2022/02/04 06:45:14;;;;;;;26.65;10.27;;;7.20;99.90;;;;;;5084580;28;20036;-71
2022/02/04 06:47:40;;;;;;;28.90;11.68;;;7.20;99.90;;;;;;5079579;28;20033;-71
2022/02/04 06:50:06;;;;;;;33.67;13.02;;;7.30;99.90;;;;;;5070934;28;20039;-70
2022/02/04 06:52:32;;;;;;;26.52;9.00;;;7.30;99.90;;;;;;5081515;28;20025;-73
2022/02/04 06:54:59;;;;;;;32.00;10.75;;;7.30;99.90;;;;;;5080200;28;20020;-72
2022/02/04 06:57:25;;;;;;;22.88;10.07;;;7.30;99.90;;;;;;5064656;28;20059;-73
2022/02/04 06:59:52;;;;;;;31.02;10.38;;;7.30;99.90;;;;;;5077010;28;20469;-70
2022/02/04 07:02:20;;;;;;;35.30;11.65;;;7.30;99.90;;;;;;5065002;28;20029;-73
2022/02/04 07:04:45;;;;;;;28.35;9.30;;;7.30;99.90;;;;;;5066157;28;20556;-72
2022/02/04 07:07:12;;;;;;;34.80;12.00;;;7.40;99.90;;;;;;5075395;28;20024;-72
2022/02/04 07:09:51;;;;;;;28.35;11.50;;;7.30;99.90;;;;;;5083090;28;20025;-71
2022/02/04 07:12:26;;;;;;;24.10;9.13;;;7.30;99.90;;;;;;5084542;28;20031;-71
2022/02/04 07:19:55;;;;;;;32.85;12.90;;;7.40;99.90;;;;;;5077654;28;20038;-71
2022/02/04 07:22:23;;;;;;;30.10;9.35;;;7.40;99.90;;;;;;5080766;28;20033;-70
2022/02/04 07:24:50;;;;;;;25.23;10.45;;;7.40;99.90;;;;;;5089364;28;20028;-71
2022/02/04 07:27:18;;;;;;;32.58;13.02;;;7.40;99.90;;;;;;5095056;28;20071;-70
2022/02/04 07:29:46;;;;;;;30.92;12.23;;;7.40;99.90;;;;;;5078560;28;20047;-71
2022/02/04 07:32:21;;;;;;;33.35;12.55;;;7.40;99.90;;;;;;5073915;28;20566;-71
2022/02/04 07:42:49;;;;;;;27.13;10.70;;;7.50;99.90;;;;;;5067321;28;20040;-71
2022/02/04 07:45:18;;;;;;;30.30;11.98;;;7.50;99.90;;;;;;5067550;28;20028;-72
2022/02/04 07:47:44;;;;;;;31.60;10.55;;;7.60;99.90;;;;;;5067898;28;20021;-73
2022/02/04 07:50:09;;;;;;;21.92;10.20;;;7.50;99.90;;;;;;5067439;28;20037;-71
2022/02/04 07:52:35;;;;;;;24.48;9.45;;;7.60;99.90;;;;;;5080687;28;20024;-72
2022/02/04 07:55:02;;;;;;;32.80;11.32;;;7.60;99.90;;;;;;5087030;28;20045;-71
2022/02/04 07:57:28;;;;;;;28.88;12.05;;;7.60;99.90;;;;;;5077102;28;20032;-72
2022/02/04 08:00:00;;;;;;;28.60;10.43;;;7.60;99.90;;;;;;5073522;28;20730;-71
2022/02/04 08:02:26;;;;;;;27.00;11.07;;;7.60;99.90;;;;;;5074749;28;20088;-73
2022/02/04 08:04:52;;;;;;;23.73;9.98;;;7.70;99.90;;;;;;5081485;28;20051;-71
2022/02/04 08:07:17;;;;;;;31.27;10.20;;;7.70;99.90;;;;;;5068935;28;20029;-71
2022/02/04 08:09:57;;;;;;;27.83;10.10;;;7.70;99.90;;;;;;5084515;28;20500;-72
2022/02/04 08:15:05;;;;;;;28.52;10.93;;;7.80;99.90;;;;;;5086556;28;20028;-70
2022/02/04 08:21:15;;;;;;;27.90;10.55;;;7.80;99.90;;;;;;5086955;28;20427;-71
2022/02/04 08:54:48;;;;;;;28.05;10.88;;;8.00;99.90;;;;;;5078522;28;20059;-72
2022/02/04 09:00:12;;;;;;;;;;;8.00;99.90;;;;;;5075251;28;20128;-73
2022/02/04 09:02:40;;;;;;;24.90;10.13;;;8.00;99.90;;;;;;5064485;28;19911;-73
2022/02/04 09:05:12;;;;;;;24.50;9.45;;;8.00;99.90;;;;;;5071794;28;20028;-72
2022/02/04 09:07:56;;;;;;;27.58;9.88;;;8.00;99.90;;;;;;5046748;28;20115;-73
2022/02/04 09:10:24;;;;;;;23.08;9.68;;;8.00;99.90;;;;;;5076310;28;20025;-73
2022/02/04 09:23:28;;;;;;;32.08;10.15;;;8.10;99.90;;;;;;5074698;28;20374;-71
2022/02/04 09:25:54;;;;;;;22.92;8.27;;;8.10;99.90;;;;;;5065709;28;20072;-71
2022/02/04 09:28:21;;;;;;;19.80;8.10;;;8.20;99.90;;;;;;5072009;28;20060;-72
2022/02/04 09:30:47;;;;;;;16.60;7.80;;;8.20;99.90;;;;;;5074863;28;20020;-72
2022/02/04 09:33:13;;;;;;;22.33;9.07;;;8.20;99.90;;;;;;5085348;28;20035;-72
2022/02/04 09:35:39;;;;;;;20.33;8.77;;;8.30;99.90;;;;;;5071816;28;20037;-72
2022/02/04 09:38:07;;;;;;;22.45;9.73;;;8.20;99.90;;;;;;5074746;28;20024;-71
2022/02/04 09:40:33;;;;;;;23.60;8.32;;;8.30;99.90;;;;;;5068833;28;20044;-73
2022/02/04 09:43:00;;;;;;;26.30;8.88;;;8.30;99.90;;;;;;5072720;28;20362;-70
2022/02/04 09:45:28;;;;;;;25.23;9.15;;;8.40;99.90;;;;;;5084312;28;20036;-72
2022/02/04 09:48:13;;;;;;;15.05;7.63;;;8.50;99.90;;;;;;5073968;28;20028;-73
2022/02/04 09:50:44;;;;;;;20.20;7.35;;;8.50;99.90;;;;;;5065232;28;20078;-73
2022/02/04 10:10:16;;;;;;;17.05;7.20;;;9.10;99.90;;;;;;5075908;28;20035;-73
2022/02/04 10:18:06;;;;;;;10.88;5.00;;;9.60;99.90;;;;;;5084467;28;20033;-72
2022/02/04 10:20:32;;;;;;;15.73;6.50;;;9.80;99.90;;;;;;5068688;28;20033;-72
2022/02/04 10:23:01;;;;;;;10.70;4.88;;;9.80;99.90;;;;;;5066046;28;20029;-72
2022/02/04 10:25:53;;;;;;;12.38;5.30;;;9.70;99.90;;;;;;5066166;28;20098;-72
2022/02/04 10:28:26;;;;;;;13.98;6.13;;;9.60;99.90;;;;;;5061597;28;20045;-70
2022/02/04 10:31:09;;;;;;;12.13;4.50;;;9.50;99.90;;;;;;5064345;28;20029;-70
2022/02/04 10:33:48;;;;;;;15.25;4.72;;;9.40;99.90;;;;;;5064370;28;20102;-75
2022/02/04 10:36:42;;;;;;;9.98;4.60;;;9.30;99.90;;;;;;5071717;28;20132;-71
2022/02/04 10:39:31;;;;;;;12.70;4.40;;;9.30;99.90;;;;;;5064105;28;20569;-71
2022/02/04 10:42:24;;;;;;;9.68;4.05;;;9.30;99.90;;;;;;5079596;28;20055;-74
2022/02/04 10:50:45;;;;;;;11.40;4.65;;;9.60;99.90;;;;;;5076205;28;20090;-74
2022/02/04 10:56:17;;;;;;;18.23;4.80;;;10.20;99.90;;;;;;5062769;28;20128;-73
2022/02/04 11:01:16;;;;;;;10.90;3.15;;;10.00;99.90;;;;;;5080522;28;20039;-71
2022/02/04 11:03:50;;;;;;;7.63;3.05;;;9.80;99.90;;;;;;5084822;28;20025;-71
2022/02/04 11:06:32;;;;;;;;;;;9.70;99.90;;;;;;5068813;28;20032;-72
2022/02/04 11:09:22;;;;;;;8.27;3.67;;;9.60;99.90;;;;;;5067710;28;20415;-71
2022/02/04 11:31:07;;;;;;;6.72;2.30;;;10.10;99.90;;;;;;5067027;28;20066;-72
2022/02/04 11:37:00;;;;;;;5.90;3.40;;;9.80;99.90;;;;;;5068241;28;20048;-72
2022/02/04 11:49:02;;;;;;;3.53;2.20;;;9.50;99.90;;;;;;5081425;28;20048;-71
2022/02/04 11:54:43;;;;;;;5.50;2.38;;;9.40;99.90;;;;;;5071941;28;20070;-71
2022/02/04 11:57:13;;;;;;;6.18;2.70;;;9.30;99.90;;;;;;5054509;28;20044;-71
2022/02/04 11:59:53;;;;;;;5.15;2.28;;;9.20;99.90;;;;;;5079857;28;20501;-71
2022/02/04 12:02:24;;;;;;;3.65;1.75;;;9.20;99.90;;;;;;5070408;28;20047;-70
2022/02/04 12:05:16;;;;;;;5.60;2.55;;;9.20;99.90;;;;;;5083099;28;20028;-73
2022/02/04 12:07:43;;;;;;;4.57;2.55;;;9.10;99.90;;;;;;5081688;28;20032;-71
2022/02/04 12:10:20;;;;;;;4.53;2.03;;;9.10;99.90;;;;;;5086470;28;20020;-73
2022/02/04 12:12:59;;;;;;;7.25;2.58;;;9.10;99.90;;;;;;5086213;28;20067;-72
2022/02/04 12:15:47;;;;;;;4.57;2.28;;;9.10;99.90;;;;;;5085300;28;20051;-72
2022/02/04 12:18:20;;;;;;;5.93;2.20;;;9.20;99.90;;;;;;5065334;28;20025;-71
2022/02/04 12:20:57;;;;;;;6.20;1.95;;;9.20;99.90;;;;;;5074584;28;20097;-71
2022/02/04 12:23:41;;;;;;;11.80;2.58;;;9.20;99.90;;;;;;5065321;28;20021;-72
2022/02/04 12:26:10;;;;;;;5.15;1.65;;;9.30;99.90;;;;;;5066921;28;20032;-74
2022/02/04 12:28:43;;;;;;;4.57;1.95;;;9.30;99.90;;;;;;5065320;28;20126;-73
2022/02/04 12:31:14;;;;;;;7.88;2.53;;;9.30;99.90;;;;;;5052432;28;20041;-71
2022/02/04 12:33:44;;;;;;;7.18;1.77;;;9.40;99.90;;;;;;5064790;28;20029;-74
2022/02/04 12:36:27;;;;;;;9.60;2.17;;;9.40;99.90;;;;;;5065016;28;20029;-72
2022/02/04 12:39:13;;;;;;;4.07;2.08;;;9.50;99.90;;;;;;5065238;28;20647;-70
2022/02/04 12:41:44;;;;;;;7.60;2.88;;;9.50;99.90;;;;;;5064629;28;20088;-72
2022/02/04 12:44:13;;;;;;;7.82;2.35;;;9.50;99.90;;;;;;5073393;28;20020;-70
2022/02/04 12:46:41;;;;;;;7.68;2.47;;;9.50;99.90;;;;;;5084948;28;20028;-72
2022/02/04 12:49:10;;;;;;;5.82;3.17;;;9.50;99.90;;;;;;5052176;28;20039;-73
2022/02/04 12:51:53;;;;;;;6.90;3.00;;;9.50;99.90;;;;;;5056470;28;20457;-72
2022/02/04 12:54:46;;;;;;;8.95;2.60;;;9.50;99.90;;;;;;5072753;28;20426;-71
2022/02/04 13:11:12;;;;;;;5.35;2.88;;;9.30;99.90;;;;;;5063554;28;20116;-74
2022/02/04 13:13:47;;;;;;;4.80;2.10;;;9.30;99.90;;;;;;5063932;28;20029;-71
2022/02/04 13:16:26;;;;;;;4.82;2.05;;;9.30;99.90;;;;;;5064345;28;20041;-73
2022/02/04 13:19:05;;;;;;;5.38;1.95;;;9.30;99.90;;;;;;5064081;28;20095;-72
2022/02/04 13:21:33;;;;;;;2.38;1.33;;;9.30;99.90;;;;;;5069720;28;20044;-72
2022/02/04 13:24:07;;;;;;;6.05;2.45;;;9.30;99.90;;;;;;5053742;28;20564;-69
2022/02/04 13:26:37;;;;;;;2.85;1.48;;;9.30;99.90;;;;;;5064871;28;20110;-73
2022/02/04 13:29:06;;;;;;;6.63;1.42;;;9.20;99.90;;;;;;5048402;28;20031;-75
2022/02/04 13:31:36;;;;;;;5.60;2.88;;;9.30;99.90;;;;;;5058089;28;20050;-71
2022/02/04 13:34:08;;;;;;;6.60;2.85;;;9.30;99.90;;;;;;5066296;28;20136;-71
2022/02/04 13:36:51;;;;;;;10.40;2.08;;;9.30;99.90;;;;;;5046777;28;20033;-71
2022/02/04 13:42:21;;;;;;;2.25;1.52;;;9.30;99.90;;;;;;5064206;28;20401;-71
2022/02/04 13:47:34;;;;;;;4.43;2.10;;;9.30;99.90;;;;;;5063661;28;20029;-72
2022/02/04 13:50:31;;;;;;;4.93;2.30;;;9.30;99.90;;;;;;5068124;28;20080;-73
2022/02/04 13:53:20;;;;;;;4.63;2.42;;;9.30;99.90;;;;;;5081953;28;20416;-72
2022/02/04 13:58:54;;;;;;;2.92;1.20;;;9.30;99.90;;;;;;5067096;28;20064;-70
2022/02/04 14:01:34;;;;;;;2.72;1.65;;;9.30;99.90;;;;;;5070694;28;20028;-73
2022/02/04 14:04:02;;;;;;;3.67;1.85;;;9.30;99.90;;;;;;5064035;28;20101;-71
2022/02/04 14:06:31;;;;;;;2.75;1.27;;;9.30;99.90;;;;;;5062395;28;20416;-73
2022/02/04 14:09:08;;;;;;;3.83;1.55;;;9.30;99.90;;;;;;5071719;28;20021;-74
2022/02/04 14:11:42;;;;;;;3.97;1.42;;;9.20;99.90;;;;;;5065514;28;20432;-73
2022/02/04 14:14:10;;;;;;;4.25;2.10;;;9.20;99.90;;;;;;5083713;28;20031;-73
2022/02/04 14:16:37;;;;;;;9.93;3.08;;;9.20;99.90;;;;;;5082843;28;20131;-73
2022/02/04 14:19:06;;;;;;;8.02;3.28;;;9.20;99.90;;;;;;5082589;28;20025;-73
2022/02/04 14:21:36;;;;;;;6.40;2.45;;;9.20;99.90;;;;;;5076970;28;20032;-74
2022/02/04 14:24:11;;;;;;;1.88;1.23;;;9.20;99.90;;;;;;5081733;28;20062;-76
2022/02/04 14:26:43;;;;;;;3.53;1.85;;;9.20;99.90;;;;;;5082866;28;20024;-73
2022/02/04 14:29:19;;;;;;;2.33;1.42;;;9.10;99.90;;;;;;5055792;28;20025;-72
2022/02/04 14:37:00;;;;;;;4.45;1.42;;;9.10;99.90;;;;;;5065668;28;20050;-72
2022/02/04 14:53:11;;;;;;;1.65;1.05;;;9.00;99.90;;;;;;5066800;28;20051;-73
2022/02/04 15:01:22;;;;;;;2.95;1.60;;;9.00;99.90;;;;;;5073385;28;20511;-72
2022/02/04 15:04:25;;;;;;;4.47;1.55;;;9.10;99.90;;;;;;5067705;28;20029;-70
2022/02/04 15:06:42;;;;;;;3.33;1.88;;;9.00;99.90;;;;;;5059874;28;20138;-71
2022/02/04 15:09:10;;;;;;;3.33;1.35;;;9.00;99.90;;;;;;5062953;28;20036;-74
2022/02/04 15:11:42;;;;;;;9.32;2.15;;;9.00;99.90;;;;;;5063171;28;20057;-71
2022/02/04 15:14:09;;;;;;;5.85;2.10;;;8.90;99.90;;;;;;5066503;28;20051;-73
2022/02/04 15:16:35;;;;;;;3.03;1.77;;;8.80;99.90;;;;;;5074919;28;20033;-72
2022/02/04 15:19:04;;;;;;;3.47;1.88;;;8.80;99.90;;;;;;5063314;28;20033;-72
2022/02/04 15:21:36;;;;;;;3.22;1.88;;;8.70;99.90;;;;;;5065882;28;20107;-74
2022/02/04 15:24:04;;;;;;;3.30;1.95;;;8.60;99.90;;;;;;5063827;28;20036;-71
2022/02/04 15:26:30;;;;;;;3.65;2.20;;;8.50;99.90;;;;;;5066235;28;20055;-74
2022/02/04 15:29:02;;;;;;;1.70;1.55;;;8.50;99.90;;;;;;5063554;28;20059;-73
2022/02/04 15:32:04;;;;;;;3.42;2.00;;;8.50;99.90;;;;;;5067398;28;20020;-71
2022/02/04 15:34:24;;;;;;;5.80;1.67;;;8.50;99.90;;;;;;5067650;28;20029;-73
2022/02/04 15:36:50;;;;;;;8.70;2.15;;;8.50;99.90;;;;;;5054575;28;20086;-73
2022/02/04 15:39:21;;;;;;;7.28;2.25;;;8.50;99.90;;;;;;5077883;28;20040;-73
2022/02/04 15:41:51;;;;;;;6.85;2.25;;;8.40;99.90;;;;;;5078733;28;20038;-73
2022/02/04 15:52:02;;;;;;;2.28;1.10;;;8.30;99.90;;;;;;5085969;28;20052;-74
2022/02/04 16:04:40;;;;;;;5.80;1.70;;;7.90;99.90;;;;;;5085734;28;20032;-75
2022/02/04 16:07:06;;;;;;;4.97;2.45;;;7.80;99.90;;;;;;5085453;28;20035;-76
2022/02/04 16:09:31;;;;;;;7.93;1.63;;;7.70;99.90;;;;;;5067002;28;20036;-75
2022/02/04 16:12:06;;;;;;;5.13;1.15;;;7.70;99.90;;;;;;5085001;28;20021;-76
2022/02/04 16:19:54;;;;;;;2.50;1.50;;;7.60;99.90;;;;;;5066097;28;20059;-74
2022/02/04 16:22:42;;;;;;;1.63;0.73;;;7.50;99.90;;;;;;5048173;28;20025;-73
2022/02/04 16:25:28;;;;;;;2.67;0.75;;;6.90;99.90;;;;;;5084226;28;20028;-72
2022/02/04 16:30:39;;;;;;;0.40;0.10;;;5.90;99.90;;;;;;5066957;28;20097;-73
2022/02/04 16:33:05;;;;;;;0.52;0.30;;;5.70;99.90;;;;;;5070056;28;20036;-76
2022/02/04 16:35:32;;;;;;;0.95;0.60;;;5.50;99.90;;;;;;5071884;28;20032;-76
2022/02/04 16:38:04;;;;;;;0.00;0.00;;;5.30;99.90;;;;;;5066248;28;20103;-73
2022/02/04 16:40:45;;;;;;;0.35;0.15;;;4.90;99.90;;;;;;5073293;28;20039;-73
2022/02/04 16:43:14;;;;;;;1.08;0.50;;;4.70;99.90;;;;;;5065935;28;20393;-71
2022/02/04 16:45:40;;;;;;;0.10;0.00;;;4.60;99.90;;;;;;5066087;28;20047;-73
2022/02/04 16:48:05;;;;;;;0.13;0.00;;;4.40;99.90;;;;;;5052061;28;20063;-71
2022/02/04 16:50:32;;;;;;;0.22;0.10;;;4.20;99.90;;;;;;5066111;28;20032;-71
2022/02/04 16:52:59;;;;;;;4.20;0.15;;;4.10;99.90;;;;;;5065685;28;20033;-73
2022/02/04 16:55:25;;;;;;;0.20;0.20;;;4.00;99.90;;;;;;5063193;28;20055;-70
2022/02/04 16:57:51;;;;;;;5.75;0.30;;;3.90;99.90;;;;;;5068274;28;20050;-72
2022/02/04 17:00:25;;;;;;;0.00;0.00;;;3.90;99.90;;;;;;5057519;28;20033;-70
2022/02/04 17:02:56;;;;;;;0.75;0.35;;;3.90;99.90;;;;;;5076767;28;20024;-70
2022/02/04 17:05:25;;;;;;;1.45;0.38;;;3.90;99.90;;;;;;5074125;28;20048;-71
2022/02/04 17:07:54;;;;;;;0.20;0.17;;;3.90;99.90;;;;;;5084625;28;20617;-71
2022/02/04 17:10:28;;;;;;;0.60;0.32;;;3.80;99.90;;;;;;5085615;28;20063;-72
2022/02/04 17:12:58;;;;;;;2.05;0.43;;;3.80;99.90;;;;;;5067430;28;20028;-70
2022/02/04 17:15:26;;;;;;;0.13;0.10;;;3.80;99.90;;;;;;5085622;28;20515;-73
2022/02/04 17:17:56;;;;;;;0.10;0.08;;;3.70;99.90;;;;;;5085595;28;20024;-72
2022/02/04 17:20:23;;;;;;;0.43;0.32;;;3.60;99.90;;;;;;5085392;28;20021;-71
2022/02/04 17:22:49;;;;;;;0.32;0.17;;;3.60;99.90;;;;;;5085601;28;20032;-70
2022/02/04 17:25:15;;;;;;;0.10;0.10;;;3.60;99.90;;;;;;5067778;28;20043;-71
2022/02/04 17:27:45;;;;;;;0.50;0.30;;;3.60;99.90;;;;;;5081446;28;20466;-71
2022/02/04 17:30:13;;;;;;;0.95;0.35;;;3.50;99.90;;;;;;5065505;28;20035;-72
2022/02/04 17:32:41;;;;;;;0.22;0.20;;;3.50;99.90;;;;;;5065144;28;20462;-71
2022/02/04 17:35:09;;;;;;;0.30;0.30;;;3.50;99.90;;;;;;5047315;28;20033;-73
2022/02/04 17:37:36;;;;;;;0.32;0.30;;;3.50;99.90;;;;;;5064937;28;20037;-78
2022/02/04 17:40:04;;;;;;;1.05;0.73;;;3.40;99.90;;;;;;5079553;28;20380;-74
2022/02/04 17:42:31;;;;;;;0.85;0.52;;;3.40;99.90;;;;;;5070683;28;20033;-73
2022/02/04 17:44:58;;;;;;;1.30;0.47;;;3.40;99.90;;;;;;5070775;28;20040;-73
2022/02/04 17:47:26;;;;;;;0.73;0.32;;;3.30;99.90;;;;;;5085165;28;20047;-71
2022/02/04 17:50:04;;;;;;;0.68;0.38;;;3.30;99.90;;;;;;5084869;28;20508;-72
2022/02/04 17:52:41;;;;;;;0.63;0.43;;;3.30;99.90;;;;;;5083808;28;20397;-72
2022/02/04 17:55:14;;;;;;;0.68;0.57;;;3.30;99.90;;;;;;5084692;28;20151;-73
2022/02/04 17:57:44;;;;;;;0.40;0.40;;;3.40;99.90;;;;;;5064303;28;20064;-70
2022/02/04 18:00:53;;;;;;;1.83;0.50;;;3.40;99.90;;;;;;5089378;28;20063;-73
2022/02/04 18:08:21;;;;;;;3.90;0.90;;;3.40;99.90;;;;;;5071009;28;20063;-71
2022/02/04 18:10:47;;;;;;;1.15;0.50;;;3.40;99.90;;;;;;5070008;28;20059;-71
2022/02/04 18:13:13;;;;;;;2.65;1.10;;;3.50;99.90;;;;;;5083732;28;20024;-71
2022/02/04 18:15:42;;;;;;;1.83;0.65;;;3.50;99.90;;;;;;5090315;28;20046;-72
2022/02/04 18:18:16;;;;;;;1.48;0.50;;;3.50;99.90;;;;;;5103585;28;20530;-70
2022/02/04 18:20:43;;;;;;;2.00;0.68;;;3.50;99.90;;;;;;5104048;28;20032;-69
2022/02/04 18:23:09;;;;;;;1.10;0.57;;;3.60;99.90;;;;;;5104848;28;20488;-70
2022/02/04 18:25:36;;;;;;;0.30;0.10;;;3.60;99.90;;;;;;5104775;28;20021;-71
2022/02/04 18:28:02;;;;;;;0.82;0.38;;;3.60;99.90;;;;;;5104308;28;20074;-73
2022/02/04 18:30:35;;;;;;;0.95;0.30;;;3.60;99.90;;;;;;5086682;28;20031;-71
2022/02/04 18:33:02;;;;;;;5.07;0.80;;;3.70;99.90;;;;;;5080918;28;20031;-73
2022/02/04 18:35:30;;;;;;;2.58;0.30;;;3.60;99.90;;;;;;5080227;28;20448;-73
2022/02/04 18:38:13;;;;;;;0.40;0.35;;;3.60;99.90;;;;;;5046578;28;20033;-71
2022/02/04 18:41:09;;;;;;;3.10;0.60;;;3.60;99.90;;;;;;5064259;28;20028;-71
2022/02/04 18:46:21;;;;;;;0.43;0.20;;;3.50;99.90;;;;;;5070894;28;20024;-73
2022/02/04 18:48:51;;;;;;;0.38;0.30;;;3.50;99.90;;;;;;5088995;28;20033;-72
2022/02/04 18:53:59;;;;;;;1.00;0.50;;;3.50;99.90;;;;;;5064969;28;20072;-72
2022/02/04 18:56:34;;;;;;;0.20;0.20;;;3.50;99.90;;;;;;5069343;28;20045;-74
2022/02/04 18:59:04;;;;;;;3.70;0.50;;;3.50;99.90;;;;;;5072496;28;20119;-75
2022/02/04 19:01:30;;;;;;;0.57;0.28;;;3.40;99.90;;;;;;5070567;28;20033;-72
2022/02/04 19:04:11;;;;;;;1.08;0.40;;;3.40;99.90;;;;;;5063027;28;20032;-72
2022/02/04 19:06:42;;;;;;;0.63;0.17;;;3.40;99.90;;;;;;5075116;28;20176;-72
2022/02/04 19:09:09;;;;;;;0.45;0.22;;;3.40;99.90;;;;;;5068634;28;20088;-71
2022/02/04 19:11:40;;;;;;;0.30;0.25;;;3.40;99.90;;;;;;5078623;28;20420;-71
2022/02/04 19:14:16;;;;;;;1.90;0.45;;;3.40;99.90;;;;;;5063952;28;20025;-71
2022/02/04 19:21:53;;;;;;;2.10;0.75;;;3.50;99.90;;;;;;5067750;28;20059;-73
2022/02/04 19:24:20;;;;;;;3.80;0.77;;;3.40;99.90;;;;;;5067409;28;20021;-73
2022/02/04 19:26:47;;;;;;;0.80;0.50;;;3.50;99.90;;;;;;5068135;28;20040;-73
2022/02/04 19:29:12;;;;;;;1.20;0.55;;;3.40;99.90;;;;;;5079746;28;20038;-73
2022/02/04 19:31:49;;;;;;;1.55;1.15;;;3.50;99.90;;;;;;5082596;28;20479;-74